createdAt,value
2018-09-14T00:02:09.899Z,19.60
2018-09-14T00:04:38.135Z,21.17
2018-09-14T00:07:06.769Z,21.10
2018-09-14T00:09:35.019Z,19.87
2018-09-14T00:12:03.250Z,18.50
2018-09-14T00:14:31.432Z,17.57
2018-09-14T00:16:59.670Z,21.40
2018-09-14T00:19:27.893Z,19.63
2018-09-14T00:21:56.119Z,20.50
2018-09-14T00:24:24.344Z,21.50
2018-09-14T00:26:52.524Z,21.23
2018-09-14T00:29:20.778Z,22.43
2018-09-14T00:31:49.045Z,22.23
2018-09-14T00:34:17.263Z,27.97
2018-09-14T00:36:45.479Z,25.67
2018-09-14T00:39:13.661Z,29.27
2018-09-14T00:41:42.003Z,22.60
2018-09-14T00:44:10.214Z,23.03
2018-09-14T00:46:38.413Z,23.27
2018-09-14T00:49:06.673Z,27.03
2018-09-14T00:51:34.892Z,21.40
2018-09-14T00:54:03.074Z,21.00
2018-09-14T00:56:31.427Z,22.67
2018-09-14T00:58:59.670Z,23.57
2018-09-14T01:01:27.901Z,20.63
2018-09-14T01:03:56.121Z,20.00
2018-09-14T01:06:24.377Z,22.17
2018-09-14T01:08:52.660Z,24.13
2018-09-14T01:11:20.928Z,19.67
2018-09-14T01:13:49.337Z,20.70
2018-09-14T01:16:17.604Z,21.20
2018-09-14T01:18:45.775Z,19.80
2018-09-14T01:21:13.992Z,21.63
2018-09-14T01:23:42.179Z,21.47
2018-09-14T01:26:10.422Z,19.50
2018-09-14T01:28:38.651Z,20.73
2018-09-14T01:31:06.844Z,22.00
2018-09-14T01:33:35.628Z,22.00
2018-09-14T01:36:09.298Z,22.23
2018-09-14T01:38:37.481Z,21.33
2018-09-14T01:41:05.849Z,21.20
2018-09-14T01:43:34.078Z,25.87
2018-09-14T01:46:02.342Z,22.73
2018-09-14T01:48:30.641Z,23.17
2018-09-14T01:50:59.041Z,24.10
2018-09-14T01:53:27.383Z,23.40
2018-09-14T01:55:55.592Z,24.90
2018-09-14T01:58:23.826Z,22.73
2018-09-14T02:00:52.145Z,24.20
2018-09-14T02:03:20.420Z,22.30
2018-09-14T02:05:48.610Z,22.33
2018-09-14T02:08:16.879Z,26.17
2018-09-14T02:10:45.139Z,26.17
2018-09-14T02:13:13.357Z,22.57
2018-09-14T02:15:41.589Z,23.67
2018-09-14T02:18:09.864Z,25.27
2018-09-14T02:20:38.058Z,23.03
2018-09-14T02:23:06.383Z,24.80
2018-09-14T02:25:34.624Z,24.83
2018-09-14T02:28:02.820Z,25.13
2018-09-14T02:30:31.065Z,22.47
2018-09-14T02:33:00.501Z,22.97
2018-09-14T02:35:28.830Z,23.10
2018-09-14T02:37:57.040Z,25.10
2018-09-14T02:40:25.264Z,21.17
2018-09-14T02:42:53.533Z,22.20
2018-09-14T02:45:21.740Z,19.30
2018-09-14T02:47:49.945Z,21.23
2018-09-14T02:50:18.171Z,20.40
2018-09-14T02:52:46.400Z,17.47
2018-09-14T02:55:14.586Z,17.83
2018-09-14T02:57:42.804Z,17.50
2018-09-14T03:00:11.235Z,17.03
2018-09-14T03:02:39.367Z,17.23
2018-09-14T03:05:07.633Z,19.37
2018-09-14T03:07:35.813Z,19.80
2018-09-14T03:10:04.480Z,17.23
2018-09-14T03:12:32.682Z,16.87
2018-09-14T03:15:00.881Z,19.03
2018-09-14T03:17:29.308Z,18.90
2018-09-14T03:19:57.522Z,15.67
2018-09-14T03:22:25.790Z,17.07
2018-09-14T03:24:54.045Z,17.83
2018-09-14T03:27:22.234Z,19.43
2018-09-14T03:29:50.414Z,16.93
2018-09-14T03:32:18.647Z,17.33
2018-09-14T03:34:46.830Z,17.93
2018-09-14T03:37:15.027Z,19.57
2018-09-14T03:39:43.205Z,17.77
2018-09-14T03:42:11.469Z,18.13
2018-09-14T03:44:39.951Z,17.00
2018-09-14T03:47:08.166Z,19.80
2018-09-14T03:49:36.435Z,18.93
2018-09-14T03:52:04.709Z,18.23
2018-09-14T03:54:32.957Z,18.73
2018-09-14T03:57:03.875Z,18.73
2018-09-14T03:59:33.477Z,18.90
2018-09-14T04:02:01.809Z,18.23
2018-09-14T04:04:30.185Z,19.10
2018-09-14T04:06:58.538Z,17.33
2018-09-14T04:09:26.741Z,20.43
2018-09-14T04:11:55.001Z,20.50
2018-09-14T04:14:23.211Z,18.70
2018-09-14T04:16:51.393Z,18.77
2018-09-14T04:19:19.568Z,21.93
2018-09-14T04:21:47.828Z,20.43
2018-09-14T04:24:16.071Z,21.53
2018-09-14T04:26:44.312Z,22.83
2018-09-14T04:29:12.553Z,19.57
2018-09-14T04:31:40.788Z,20.67
2018-09-14T04:34:09.055Z,20.77
2018-09-14T04:36:37.306Z,25.33
2018-09-14T04:39:08.080Z,22.70
2018-09-14T04:41:36.370Z,19.47
2018-09-14T04:44:04.575Z,18.97
2018-09-14T04:46:32.805Z,24.50
2018-09-14T04:49:00.956Z,24.50
2018-09-14T04:51:31.090Z,27.83
2018-09-14T04:53:59.281Z,28.83
2018-09-14T04:56:27.510Z,27.37
2018-09-14T04:58:55.771Z,33.37
2018-09-14T05:01:23.986Z,32.00
2018-09-14T05:03:52.235Z,38.33
2018-09-14T05:06:20.571Z,44.23
2018-09-14T05:08:48.833Z,44.10
2018-09-14T05:11:17.072Z,40.07
2018-09-14T05:13:45.302Z,29.10
2018-09-14T05:16:13.489Z,29.13
2018-09-14T05:18:41.761Z,25.10
2018-09-14T05:21:09.952Z,27.57
2018-09-14T05:23:38.208Z,26.47
2018-09-14T05:26:06.488Z,22.17
2018-09-14T05:28:34.714Z,20.67
2018-09-14T05:31:02.969Z,21.70
2018-09-14T05:33:31.245Z,23.37
2018-09-14T05:35:59.438Z,23.33
2018-09-14T05:38:27.731Z,27.37
2018-09-14T05:40:55.940Z,24.00
2018-09-14T05:43:24.244Z,23.53
2018-09-14T05:45:53.916Z,23.80
2018-09-14T05:48:22.709Z,24.10
2018-09-14T05:50:50.908Z,19.87
2018-09-14T05:53:19.128Z,21.97
2018-09-14T05:55:47.369Z,23.33
2018-09-14T05:58:15.611Z,20.43
2018-09-14T06:00:43.849Z,22.97
2018-09-14T06:03:12.338Z,19.57
2018-09-14T06:05:40.597Z,21.47
2018-09-14T06:08:08.814Z,18.40
2018-09-14T06:10:37.031Z,20.53
2018-09-14T06:13:05.248Z,20.33
2018-09-14T06:15:33.484Z,19.90
2018-09-14T06:18:01.693Z,18.73
2018-09-14T06:20:29.932Z,21.33
2018-09-14T06:22:58.172Z,20.57
2018-09-14T06:25:26.414Z,20.23
2018-09-14T06:27:54.637Z,19.50
2018-09-14T06:30:22.876Z,18.43
2018-09-14T06:32:51.142Z,23.97
2018-09-14T06:35:19.329Z,17.73
2018-09-14T06:37:47.546Z,17.50
2018-09-14T06:40:15.794Z,20.30
2018-09-14T06:42:44.061Z,22.57
2018-09-14T06:45:12.314Z,22.57
2018-09-14T06:47:40.507Z,19.03
2018-09-14T06:50:08.708Z,20.63
2018-09-14T06:52:36.916Z,20.20
2018-09-14T06:55:05.150Z,18.70
2018-09-14T06:57:33.353Z,18.07
2018-09-14T07:00:01.627Z,16.67
2018-09-14T07:02:29.788Z,17.97
2018-09-14T07:04:58.464Z,16.53
2018-09-14T07:07:26.695Z,19.50
2018-09-14T07:09:54.976Z,17.40
2018-09-14T07:12:23.213Z,15.43
2018-09-14T07:14:51.427Z,17.93
2018-09-14T07:17:19.691Z,18.33
2018-09-14T07:19:47.921Z,18.80
2018-09-14T07:22:16.097Z,16.07
2018-09-14T07:24:44.595Z,18.87
2018-09-14T07:27:12.532Z,19.27
2018-09-14T07:29:40.777Z,17.73
2018-09-14T07:32:09.024Z,15.93
2018-09-14T07:34:37.263Z,16.10
2018-09-14T07:37:05.755Z,15.37
2018-09-14T07:39:34.006Z,16.83
2018-09-14T07:42:02.228Z,18.33
2018-09-14T07:44:30.472Z,17.33
2018-09-14T07:46:58.699Z,24.90
2018-09-14T07:49:26.952Z,18.67
2018-09-14T07:51:55.175Z,17.53
2018-09-14T07:54:23.449Z,17.47
2018-09-14T07:56:51.698Z,17.37
2018-09-14T07:59:19.904Z,23.67
2018-09-14T08:01:48.155Z,19.07
2018-09-14T08:04:16.401Z,17.30
2018-09-14T08:06:44.744Z,18.57
2018-09-14T08:09:13.955Z,19.80
2018-09-14T08:11:42.539Z,19.37
2018-09-14T08:14:11.372Z,17.20
2018-09-14T08:16:39.728Z,19.80
2018-09-14T08:19:07.900Z,19.43
2018-09-14T08:21:36.612Z,17.93
2018-09-14T08:24:04.739Z,18.50
2018-09-14T08:26:33.036Z,16.53
2018-09-14T08:29:01.233Z,16.30
2018-09-14T08:31:29.472Z,17.57
2018-09-14T08:33:57.728Z,18.33
2018-09-14T08:36:26.005Z,16.53
2018-09-14T08:38:54.197Z,18.33
2018-09-14T08:41:22.415Z,18.77
2018-09-14T08:43:50.634Z,18.97
2018-09-14T08:46:18.925Z,19.70
2018-09-14T08:48:47.174Z,24.07
2018-09-14T08:51:15.344Z,23.43
2018-09-14T08:53:43.607Z,20.23
2018-09-14T08:56:11.828Z,22.70
2018-09-14T08:58:40.058Z,20.47
2018-09-14T09:01:08.326Z,20.17
2018-09-14T09:03:36.537Z,26.57
2018-09-14T09:06:04.722Z,23.83
2018-09-14T09:08:32.968Z,25.97
2018-09-14T09:11:01.238Z,21.30
2018-09-14T09:13:29.469Z,21.77
2018-09-14T09:15:57.703Z,22.30
2018-09-14T09:18:25.885Z,22.70
2018-09-14T09:20:54.132Z,26.73
2018-09-14T09:23:22.417Z,21.15
2018-09-14T09:25:50.571Z,23.15
2018-09-14T09:28:18.934Z,24.92
2018-09-14T09:30:47.147Z,21.80
2018-09-14T09:33:15.402Z,22.93
2018-09-14T09:35:43.609Z,24.60
2018-09-14T09:38:11.891Z,23.75
2018-09-14T09:40:41.006Z,20.50
2018-09-14T09:43:09.293Z,23.25
2018-09-14T09:45:37.484Z,21.25
2018-09-14T09:48:05.725Z,21.90
2018-09-14T09:50:33.908Z,23.32
2018-09-14T09:53:02.150Z,20.85
2018-09-14T09:55:30.405Z,21.48
2018-09-14T09:57:58.640Z,20.02
2018-09-14T10:00:34.308Z,23.57
2018-09-14T10:03:07.992Z,18.70
2018-09-14T10:05:41.772Z,20.02
2018-09-14T10:08:10.005Z,17.95
2018-09-14T10:10:38.203Z,20.00
2018-09-14T10:13:06.412Z,21.25
2018-09-14T10:15:34.698Z,20.43
2018-09-14T10:18:02.909Z,24.25
2018-09-14T10:20:31.169Z,18.48
2018-09-14T10:22:59.360Z,21.75
2018-09-14T10:25:27.587Z,19.52
2018-09-14T10:27:57.147Z,18.25
2018-09-14T10:30:25.329Z,18.48
2018-09-14T10:32:53.530Z,18.40
2018-09-14T10:35:21.759Z,18.60
2018-09-14T10:37:50.017Z,21.23
2018-09-14T10:40:18.314Z,18.50
2018-09-14T10:42:46.595Z,21.73
2018-09-14T10:45:14.779Z,19.45
2018-09-14T10:47:42.916Z,18.73
2018-09-14T10:50:11.151Z,18.70
2018-09-14T10:52:39.436Z,20.32
2018-09-14T10:55:07.659Z,18.90
2018-09-14T10:57:35.923Z,18.82
2018-09-14T11:00:04.309Z,17.15
2018-09-14T11:02:32.528Z,17.52
2018-09-14T11:05:00.797Z,17.32
2018-09-14T11:07:30.236Z,21.77
2018-09-14T11:09:58.483Z,17.37
2018-09-14T11:12:26.751Z,15.78
2018-09-14T11:14:54.938Z,19.30
2018-09-14T11:17:23.145Z,17.35
2018-09-14T11:19:51.376Z,18.27
2018-09-14T11:22:19.695Z,20.37
2018-09-14T11:24:47.990Z,18.70
2018-09-14T11:27:16.178Z,21.42
2018-09-14T11:29:44.440Z,16.57
2018-09-14T11:32:12.673Z,15.80
2018-09-14T11:34:40.899Z,15.32
2018-09-14T11:37:09.146Z,23.70
2018-09-14T11:39:37.313Z,23.35
2018-09-14T11:42:05.600Z,24.12
2018-09-14T11:44:33.849Z,18.70
2018-09-14T11:47:02.119Z,18.85
2018-09-14T11:49:30.367Z,24.65
2018-09-14T11:51:58.594Z,20.85
2018-09-14T11:54:26.911Z,19.80
2018-09-14T11:56:55.040Z,24.23
2018-09-14T11:59:23.303Z,22.37
2018-09-14T12:01:51.584Z,29.50
2018-09-14T12:04:19.840Z,25.10
2018-09-14T12:06:48.108Z,27.17
2018-09-14T12:09:16.322Z,27.07
2018-09-14T12:11:44.576Z,29.18
2018-09-14T12:14:12.765Z,29.02
2018-09-14T12:16:41.046Z,21.15
2018-09-14T12:19:09.247Z,21.90
2018-09-14T12:21:37.511Z,22.93
2018-09-14T12:24:05.740Z,25.00
2018-09-14T12:26:33.967Z,21.62
2018-09-14T12:29:02.232Z,21.90
2018-09-14T12:31:31.261Z,21.65
2018-09-14T12:33:59.590Z,20.10
2018-09-14T12:36:27.778Z,21.17
2018-09-14T12:38:56.120Z,18.60
2018-09-14T12:41:24.397Z,14.25
2018-09-14T12:43:52.624Z,15.03
2018-09-14T12:46:21.008Z,16.55
2018-09-14T12:48:49.397Z,18.32
2018-09-14T12:51:17.506Z,14.85
2018-09-14T12:53:45.760Z,16.55
2018-09-14T12:56:13.988Z,15.75
2018-09-14T12:58:42.199Z,13.38
2018-09-14T13:01:10.655Z,14.07
2018-09-14T13:03:39.036Z,15.63
2018-09-14T13:06:07.345Z,18.25
2018-09-14T13:08:35.698Z,17.27
2018-09-14T13:11:03.968Z,15.95
2018-09-14T13:13:32.329Z,16.42
2018-09-14T13:16:00.590Z,20.00
2018-09-14T13:18:29.723Z,18.37
2018-09-14T13:20:58.229Z,18.70
2018-09-14T13:23:26.783Z,15.70
2018-09-14T13:25:55.289Z,21.33
2018-09-14T13:28:24.999Z,17.45
2018-09-14T13:30:55.276Z,13.90
2018-09-14T13:33:26.200Z,16.25
2018-09-14T13:35:55.386Z,11.05
2018-09-14T13:38:23.816Z,14.03
2018-09-14T13:40:52.903Z,10.78
2018-09-14T13:43:21.802Z,13.08
2018-09-14T13:45:53.485Z,11.03
2018-09-14T13:48:22.894Z,18.05
2018-09-14T13:50:51.336Z,11.12
2018-09-14T13:53:19.982Z,8.60
2018-09-14T13:55:48.238Z,10.32
2018-09-14T13:58:16.486Z,10.28
2018-09-14T14:00:44.671Z,7.72
2018-09-14T14:03:12.992Z,9.35
2018-09-14T14:05:41.277Z,7.83
2018-09-14T14:08:09.581Z,6.62
2018-09-14T14:10:37.867Z,10.95
2018-09-14T14:13:06.211Z,14.18
2018-09-14T14:15:34.465Z,6.05
2018-09-14T14:18:02.855Z,9.03
2018-09-14T14:20:31.137Z,8.10
2018-09-14T14:22:59.425Z,10.70
2018-09-14T14:25:27.683Z,12.90
2018-09-14T14:27:55.903Z,11.63
2018-09-14T14:30:24.139Z,9.65
2018-09-14T14:32:52.417Z,11.35
2018-09-14T14:35:20.698Z,12.00
2018-09-14T14:37:48.982Z,9.55
2018-09-14T14:40:17.197Z,6.97
2018-09-14T14:42:45.440Z,8.53
2018-09-14T14:45:13.688Z,10.88
2018-09-14T14:47:42.022Z,6.22
2018-09-14T14:50:10.228Z,8.15
2018-09-14T14:52:38.487Z,9.58
2018-09-14T14:55:06.743Z,12.60
2018-09-14T14:57:34.952Z,7.70
2018-09-14T15:00:03.324Z,9.35
2018-09-14T15:02:31.625Z,10.10
2018-09-14T15:04:59.851Z,9.08
2018-09-14T15:07:28.205Z,8.03
2018-09-14T15:09:56.403Z,7.50
2018-09-14T15:12:24.708Z,10.82
2018-09-14T15:14:53.037Z,8.00
2018-09-14T15:17:21.499Z,6.53
2018-09-14T15:19:49.698Z,8.68
2018-09-14T15:22:17.920Z,7.30
2018-09-14T15:24:46.124Z,11.08
2018-09-14T15:27:14.484Z,9.68
2018-09-14T15:29:42.750Z,12.23
2018-09-14T15:32:10.949Z,7.65
2018-09-14T15:34:39.136Z,7.87
2018-09-14T15:37:07.383Z,7.00
2018-09-14T15:39:35.501Z,7.30
2018-09-14T15:42:03.680Z,8.05
2018-09-14T15:44:31.849Z,8.63
2018-09-14T15:47:00.073Z,5.65
2018-09-14T15:49:28.271Z,8.60
2018-09-14T15:51:56.460Z,8.30
2018-09-14T15:54:24.678Z,10.10
2018-09-14T15:56:52.880Z,6.70
2018-09-14T15:59:21.084Z,10.55
2018-09-14T16:01:49.360Z,12.20
2018-09-14T16:04:18.043Z,9.43
2018-09-14T16:06:46.256Z,7.28
2018-09-14T16:09:14.511Z,9.88
2018-09-14T16:11:42.684Z,8.43
2018-09-14T16:14:10.860Z,5.10
2018-09-14T16:16:39.044Z,9.80
2018-09-14T16:19:07.316Z,5.97
2018-09-14T16:21:35.536Z,6.95
2018-09-14T16:24:03.820Z,7.55
2018-09-14T16:26:32.070Z,5.50
2018-09-14T16:29:00.264Z,8.58
2018-09-14T16:31:28.470Z,6.22
2018-09-14T16:33:56.712Z,11.15
2018-09-14T16:36:24.917Z,8.55
2018-09-14T16:38:53.165Z,9.30
2018-09-14T16:41:21.351Z,9.08
2018-09-14T16:43:49.583Z,7.65
2018-09-14T16:46:17.774Z,11.18
2018-09-14T16:48:46.008Z,7.87
2018-09-14T16:51:14.218Z,10.03
2018-09-14T16:53:42.400Z,4.92
2018-09-14T16:56:11.205Z,11.60
2018-09-14T16:58:39.382Z,10.88
2018-09-14T17:01:07.563Z,7.50
2018-09-14T17:03:35.848Z,9.03
2018-09-14T17:06:04.140Z,7.80
2018-09-14T17:08:32.372Z,7.47
2018-09-14T17:11:00.552Z,7.12
2018-09-14T17:13:28.795Z,8.63
2018-09-14T17:15:56.997Z,7.67
2018-09-14T17:18:25.197Z,5.33
2018-09-14T17:20:53.381Z,4.28
2018-09-14T17:23:21.592Z,6.60
2018-09-14T17:25:49.839Z,10.05
2018-09-14T17:28:18.063Z,6.45
2018-09-14T17:30:46.257Z,6.45
2018-09-14T17:33:14.477Z,6.40
2018-09-14T17:35:42.916Z,5.43
2018-09-14T17:38:11.110Z,8.43
2018-09-14T17:40:39.377Z,11.60
2018-09-14T17:43:07.593Z,6.03
2018-09-14T17:45:35.869Z,7.75
2018-09-14T17:48:04.071Z,8.90
2018-09-14T17:50:32.328Z,7.50
2018-09-14T17:53:00.655Z,6.87
2018-09-14T17:55:28.856Z,8.03
2018-09-14T17:57:57.083Z,6.83
2018-09-14T18:00:25.349Z,8.83
2018-09-14T18:02:53.645Z,5.37
2018-09-14T18:05:21.978Z,6.07
2018-09-14T18:07:50.238Z,12.50
2018-09-14T18:10:18.474Z,6.87
2018-09-14T18:12:47.192Z,5.07
2018-09-14T18:15:15.394Z,10.20
2018-09-14T18:17:44.690Z,6.07
2018-09-14T18:20:12.922Z,6.67
2018-09-14T18:22:41.113Z,4.13
2018-09-14T18:25:09.325Z,11.50
2018-09-14T18:27:37.582Z,7.90
2018-09-14T18:30:07.189Z,7.67
2018-09-14T18:32:35.546Z,7.47
2018-09-14T18:35:03.881Z,4.33
2018-09-14T18:37:32.062Z,4.43
2018-09-14T18:40:00.332Z,4.87
2018-09-14T18:42:28.527Z,7.83
2018-09-14T18:44:56.772Z,4.70
2018-09-14T18:47:25.005Z,5.10
2018-09-14T18:49:53.253Z,6.30
2018-09-14T18:52:21.466Z,4.20
2018-09-14T18:54:50.125Z,6.07
2018-09-14T18:57:18.360Z,8.43
2018-09-14T18:59:46.694Z,4.33
2018-09-14T19:02:14.965Z,6.30
2018-09-14T19:04:43.277Z,6.37
2018-09-14T19:07:11.571Z,6.50
2018-09-14T19:09:39.918Z,12.13
2018-09-14T19:12:08.239Z,7.47
2018-09-14T19:14:36.485Z,12.23
2018-09-14T19:17:04.742Z,8.77
2018-09-14T19:19:33.718Z,8.77
2018-09-14T19:22:04.585Z,7.97
2018-09-14T19:24:33.603Z,8.03
2018-09-14T19:27:02.765Z,6.97
2018-09-14T19:29:31.698Z,8.20
2018-09-14T19:32:00.352Z,10.53
2018-09-14T19:34:28.605Z,7.87
2018-09-14T19:36:56.958Z,7.20
2018-09-14T19:39:25.374Z,5.63
2018-09-14T19:41:54.206Z,6.20
2018-09-14T19:44:22.802Z,6.37
2018-09-14T19:46:51.115Z,6.83
2018-09-14T19:49:19.511Z,6.67
2018-09-14T19:51:48.254Z,4.67
2018-09-14T19:54:16.815Z,4.93
2018-09-14T19:56:45.482Z,3.03
2018-09-14T19:59:14.049Z,4.33
2018-09-14T20:01:42.290Z,4.57
2018-09-14T20:04:10.997Z,4.87
2018-09-14T20:06:39.486Z,5.40
2018-09-14T20:09:10.559Z,3.37
2018-09-14T20:11:39.062Z,9.00
2018-09-14T20:14:08.014Z,4.00
2018-09-14T20:16:36.455Z,3.93
2018-09-14T20:19:05.405Z,4.67
2018-09-14T20:21:34.018Z,5.83
2018-09-14T20:24:02.383Z,6.03
2018-09-14T20:26:30.744Z,6.07
2018-09-14T20:28:59.098Z,4.13
2018-09-14T20:31:27.456Z,5.20
2018-09-14T20:33:55.959Z,6.03
2018-09-14T20:36:24.247Z,6.37
2018-09-14T20:38:52.535Z,4.63
2018-09-14T20:41:20.727Z,5.87
2018-09-14T20:43:48.958Z,4.27
2018-09-14T20:46:17.173Z,6.33
2018-09-14T20:48:45.370Z,7.00
2018-09-14T20:51:13.586Z,4.80
2018-09-14T20:53:42.128Z,7.50
2018-09-14T20:56:10.315Z,3.80
2018-09-14T20:58:38.699Z,6.70
2018-09-14T21:01:07.371Z,7.30
2018-09-14T21:03:35.861Z,5.83
2018-09-14T21:06:04.646Z,7.53
2018-09-14T21:08:32.951Z,6.57
2018-09-14T21:11:01.113Z,6.97
2018-09-14T21:13:29.610Z,7.37
2018-09-14T21:15:58.307Z,5.37
2018-09-14T21:18:26.806Z,6.57
2018-09-14T21:20:55.715Z,7.50
2018-09-14T21:23:24.424Z,7.90
2018-09-14T21:25:53.277Z,6.33
2018-09-14T21:28:22.003Z,8.70
2018-09-14T21:30:50.485Z,8.07
2018-09-14T21:33:18.755Z,9.27
2018-09-14T21:35:47.431Z,6.63
2018-09-14T21:38:15.816Z,5.67
2018-09-14T21:40:45.345Z,8.00
2018-09-14T21:43:13.749Z,6.73
2018-09-14T21:45:42.665Z,5.60
2018-09-14T21:48:11.338Z,7.23
2018-09-14T21:50:39.747Z,5.67
2018-09-14T21:53:08.090Z,6.37
2018-09-14T21:55:36.301Z,6.17
2018-09-14T21:58:04.455Z,9.33
2018-09-14T22:00:38.016Z,6.57
2018-09-14T22:03:06.287Z,8.17
2018-09-14T22:05:34.471Z,9.70
2018-09-14T22:08:02.685Z,8.00
2018-09-14T22:10:30.914Z,8.97
2018-09-14T22:12:59.179Z,5.87
2018-09-14T22:15:27.413Z,6.27
2018-09-14T22:17:55.733Z,9.30
2018-09-14T22:20:23.979Z,7.60
2018-09-14T22:22:52.142Z,11.47
2018-09-14T22:25:20.343Z,9.63
2018-09-14T22:27:49.468Z,9.93
2018-09-14T22:30:17.695Z,10.43
2018-09-14T22:32:45.959Z,8.57
2018-09-14T22:35:14.245Z,12.73
2018-09-14T22:37:42.698Z,7.73
2018-09-14T22:40:10.918Z,11.70
2018-09-14T22:42:39.399Z,6.67
2018-09-14T22:45:07.639Z,7.37
2018-09-14T22:47:35.865Z,10.03
2018-09-14T22:50:04.083Z,9.07
2018-09-14T22:52:32.381Z,11.13
2018-09-14T22:55:00.576Z,12.07
2018-09-14T22:57:28.800Z,7.07
2018-09-14T22:59:56.994Z,7.83
2018-09-14T23:02:25.241Z,8.53
2018-09-14T23:04:53.437Z,8.00
2018-09-14T23:07:21.693Z,8.50
2018-09-14T23:09:49.881Z,12.00
2018-09-14T23:12:18.082Z,7.77
2018-09-14T23:14:46.255Z,11.83
2018-09-14T23:17:14.514Z,8.97
2018-09-14T23:19:42.706Z,8.60
2018-09-14T23:22:10.933Z,7.43
2018-09-14T23:24:39.186Z,7.83
2018-09-14T23:27:07.399Z,7.53
2018-09-14T23:29:35.586Z,8.17
2018-09-14T23:32:04.871Z,13.27
2018-09-14T23:34:33.104Z,10.10
2018-09-14T23:37:01.339Z,8.97
2018-09-14T23:39:29.568Z,12.40
2018-09-14T23:41:57.778Z,6.80
2018-09-14T23:44:25.988Z,7.67
2018-09-14T23:46:54.208Z,10.60
2018-09-14T23:49:22.422Z,7.17
2018-09-14T23:51:50.712Z,10.03
2018-09-14T23:54:18.957Z,6.50
2018-09-14T23:56:47.143Z,6.13
2018-09-14T23:59:15.282Z,8.47
